createdAt,value
2019-01-11T00:05:29.920Z,0.05
2019-01-11T00:08:30.634Z,0.02
2019-01-11T00:14:11.103Z,0.05
2019-01-11T00:19:19.632Z,0.12
2019-01-11T00:21:23.562Z,0.23
2019-01-11T00:34:13.005Z,0.28
2019-01-11T00:43:37.357Z,0.35
2019-01-11T01:18:51.473Z,0.53
2019-01-11T01:27:30.780Z,0.43
2019-01-11T01:50:33.316Z,0.65
2019-01-11T02:02:37.250Z,0.73
2019-01-11T02:05:31.638Z,0.77
2019-01-11T02:08:54.288Z,0.75
2019-01-11T02:12:30.224Z,0.73
2019-01-11T02:28:32.474Z,0.88
2019-01-11T02:31:16.533Z,0.88
2019-01-11T02:35:26.527Z,0.91
2019-01-11T02:37:36.182Z,0.92
2019-01-11T02:44:23.497Z,0.95
2019-01-11T03:05:49.236Z,1.03
2019-01-11T03:06:29.447Z,1.04
2019-01-11T05:28:44.062Z,1.58
2019-01-11T05:38:28.308Z,1.74
2019-01-11T05:42:01.560Z,1.70
2019-01-11T06:01:16.849Z,1.78
2019-01-11T06:14:39.247Z,1.83
2019-01-11T06:37:10.134Z,1.71
2019-01-11T06:58:04.392Z,1.54
2019-01-11T07:11:37.780Z,1.51
2019-01-11T07:14:53.996Z,1.42
2019-01-11T07:21:29.696Z,1.08
2019-01-11T07:23:58.503Z,1.20
2019-01-11T07:30:27.290Z,1.17
2019-01-11T07:34:33.372Z,1.08
2019-01-11T07:37:05.323Z,0.93
2019-01-11T07:40:12.314Z,0.84
2019-01-11T07:49:03.067Z,0.81
2019-01-11T07:51:54.070Z,0.91
2019-01-11T07:58:07.804Z,0.78
2019-01-11T08:00:59.678Z,0.68
2019-01-11T08:04:39.240Z,0.86
2019-01-11T08:07:37.113Z,0.86
2019-01-11T08:20:15.412Z,0.68
2019-01-11T08:23:20.777Z,0.72
2019-01-11T08:26:36.494Z,0.71
2019-01-11T08:44:44.637Z,0.58
2019-01-11T08:55:08.347Z,0.81
2019-01-11T08:57:38.653Z,0.82
2019-01-11T09:00:12.846Z,0.80
2019-01-11T09:02:46.773Z,0.96
2019-01-11T09:05:27.089Z,1.04
2019-01-11T09:07:57.841Z,1.06
2019-01-11T09:17:53.511Z,1.53
2019-01-11T09:21:20.306Z,1.63
2019-01-11T09:28:00.435Z,1.71
2019-01-11T09:34:11.674Z,1.85
2019-01-11T09:50:53.480Z,1.95
2019-01-11T09:53:55.594Z,2.03
2019-01-11T10:09:14.480Z,1.96
2019-01-11T10:19:00.927Z,2.03
2019-01-11T10:25:19.956Z,2.05
2019-01-11T10:36:19.974Z,1.86
2019-01-11T10:39:21.160Z,1.94
2019-01-11T10:45:56.892Z,2.26
2019-01-11T10:48:33.802Z,2.74
2019-01-11T10:51:40.175Z,3.34
2019-01-11T11:00:59.482Z,4.19
2019-01-11T11:07:13.519Z,4.72
2019-01-11T11:10:07.056Z,4.91
2019-01-11T11:13:14.411Z,4.89
2019-01-11T11:16:32.873Z,4.91
2019-01-11T11:19:27.064Z,4.46
2019-01-11T11:22:35.258Z,4.44
2019-01-11T11:25:41.311Z,4.90
2019-01-11T11:28:35.882Z,4.66
2019-01-11T11:31:48.427Z,4.41
2019-01-11T11:35:11.545Z,3.76
2019-01-11T11:38:19.936Z,3.27
2019-01-11T11:41:10.946Z,4.16
2019-01-11T11:43:46.546Z,4.16
2019-01-11T11:49:40.974Z,7.60
2019-01-11T11:52:40.888Z,8.25
2019-01-11T11:55:40.005Z,8.15
2019-01-11T11:58:36.787Z,9.24
2019-01-11T12:05:38.748Z,6.73
2019-01-11T12:07:41.551Z,5.02
2019-01-11T12:10:50.222Z,3.89
2019-01-11T12:14:11.842Z,3.30
2019-01-11T12:16:48.717Z,2.81
2019-01-11T12:23:10.551Z,2.52
2019-01-11T12:26:33.586Z,2.30
2019-01-11T12:29:17.210Z,2.31
2019-01-11T12:31:57.521Z,2.25
2019-01-11T12:34:30.902Z,2.24
2019-01-11T12:37:01.808Z,2.11
2019-01-11T12:46:29.598Z,2.03
2019-01-11T12:49:34.833Z,2.02
2019-01-11T12:52:19.486Z,1.83
2019-01-11T12:58:40.031Z,1.98
2019-01-11T13:01:32.071Z,1.86
2019-01-11T13:04:14.480Z,1.86
2019-01-11T13:10:27.506Z,1.85
2019-01-11T13:16:35.908Z,1.68
2019-01-11T13:22:56.024Z,1.66
2019-01-11T13:29:43.324Z,1.53
2019-01-11T13:30:58.741Z,1.62
2019-01-11T13:43:00.923Z,1.50
2019-01-11T13:46:00.765Z,1.44
2019-01-11T13:49:15.672Z,1.29
2019-01-11T13:52:12.919Z,1.35
2019-01-11T13:55:50.023Z,1.15
2019-01-11T14:01:36.349Z,1.15
2019-01-11T14:05:13.676Z,1.18
2019-01-11T14:07:56.704Z,1.17
2019-01-11T14:13:22.848Z,1.08
2019-01-11T14:16:40.025Z,1.06
2019-01-11T14:19:41.139Z,0.89
2019-01-11T14:28:33.532Z,0.92
2019-01-11T14:31:09.889Z,0.87
2019-01-11T14:39:24.060Z,0.70
2019-01-11T14:41:04.779Z,0.79
2019-01-11T14:44:09.703Z,0.66
2019-01-11T14:50:31.515Z,0.56
2019-01-11T14:56:46.258Z,0.52
2019-01-11T15:00:08.687Z,0.39
2019-01-11T15:03:32.376Z,0.40
2019-01-11T15:07:21.448Z,0.37
2019-01-11T15:12:48.922Z,0.49
2019-01-11T15:15:23.449Z,0.45
2019-01-11T15:17:53.942Z,0.47
2019-01-11T15:20:24.328Z,0.33
2019-01-11T15:22:59.913Z,0.41
2019-01-11T15:25:33.921Z,0.52
2019-01-11T15:28:09.101Z,0.57
2019-01-11T15:30:39.484Z,0.50
2019-01-11T15:33:13.723Z,0.53
2019-01-11T15:35:50.867Z,0.39
2019-01-11T15:38:24.758Z,0.37
2019-01-11T15:40:55.130Z,0.32
2019-01-11T15:43:25.639Z,0.32
2019-01-11T15:46:07.584Z,0.18
2019-01-11T15:48:49.104Z,0.15
2019-01-11T15:51:28.158Z,0.17
2019-01-11T15:53:59.980Z,0.19
2019-01-11T15:56:33.092Z,0.17
2019-01-11T15:59:03.602Z,0.14
2019-01-11T16:01:38.576Z,0.16
2019-01-11T16:04:10.614Z,0.12
2019-01-11T16:06:43.716Z,0.18
2019-01-11T16:10:04.165Z,0.30
2019-01-11T16:12:51.411Z,0.19
2019-01-11T16:15:49.864Z,0.00
2019-01-11T16:18:34.808Z,0.15
2019-01-11T16:21:14.792Z,0.04
2019-01-11T16:23:45.178Z,0.05
2019-01-11T16:26:17.777Z,0.08
2019-01-11T16:28:51.306Z,0.01
2019-01-11T16:31:24.271Z,-0.08
2019-01-11T16:33:55.359Z,-0.37
2019-01-11T16:36:37.522Z,-0.10
2019-01-11T16:39:10.914Z,-0.10
2019-01-11T16:41:42.790Z,-0.11
2019-01-11T16:44:17.655Z,-0.07
2019-01-11T16:46:48.037Z,-0.08
2019-01-11T16:49:20.798Z,-0.14
2019-01-11T16:51:51.450Z,0.00
2019-01-11T16:54:22.287Z,-0.08
2019-01-11T16:56:52.883Z,-0.04
2019-01-11T16:59:25.115Z,-0.12
2019-01-11T17:01:59.529Z,-0.15
2019-01-11T17:04:31.705Z,-0.18
2019-01-11T17:07:07.658Z,-0.24
2019-01-11T17:09:36.645Z,-0.35
2019-01-11T17:12:09.123Z,-0.22
2019-01-11T17:14:42.676Z,-0.55
2019-01-11T17:17:13.328Z,-0.33
2019-01-11T17:19:43.938Z,-0.50
2019-01-11T17:22:16.725Z,-0.62
2019-01-11T17:24:50.277Z,-0.55
2019-01-11T17:27:22.007Z,-0.50
2019-01-11T17:29:57.402Z,-0.34
2019-01-11T17:32:28.568Z,-0.33
2019-01-11T17:35:01.554Z,-0.49
2019-01-11T17:37:31.972Z,-0.54
2019-01-11T17:40:02.390Z,-0.49
2019-01-11T17:42:34.538Z,-0.51
2019-01-11T17:45:06.820Z,-0.62
2019-01-11T17:47:39.255Z,-0.56
2019-01-11T17:50:18.302Z,-0.55
2019-01-11T17:52:49.087Z,-0.56
2019-01-11T17:55:19.561Z,-0.57
2019-01-11T17:57:52.481Z,-0.62
2019-01-11T18:00:23.878Z,-0.59
2019-01-11T18:03:02.664Z,-0.63
2019-01-11T18:05:33.383Z,-0.60
2019-01-11T18:08:04.072Z,-0.64
2019-01-11T18:10:34.795Z,-0.59
2019-01-11T18:13:05.804Z,-0.68
2019-01-11T18:15:39.279Z,-0.64
2019-01-11T18:18:10.181Z,-0.59
2019-01-11T18:20:42.679Z,-0.54
2019-01-11T18:23:19.675Z,-0.51
2019-01-11T18:25:57.552Z,-0.60
2019-01-11T18:28:30.146Z,-0.46
2019-01-11T18:31:00.926Z,-0.49
2019-01-11T18:36:54.214Z,-0.65
2019-01-11T18:39:30.241Z,-0.60
2019-01-11T18:48:11.825Z,-0.68
2019-01-11T18:55:14.817Z,-0.83
2019-01-11T19:03:15.410Z,-0.82
2019-01-11T19:10:10.730Z,-0.83
2019-01-11T19:16:49.178Z,-0.76
2019-01-11T19:19:26.324Z,-0.84
2019-01-11T19:22:04.492Z,-0.90
2019-01-11T19:24:40.818Z,-0.80
2019-01-11T19:27:11.800Z,-0.70
2019-01-11T19:29:42.845Z,-0.68
2019-01-11T19:32:19.506Z,-0.71
2019-01-11T19:51:39.875Z,-0.87
2019-01-11T20:01:52.447Z,-0.98
2019-01-11T20:04:38.780Z,-1.04
2019-01-11T20:12:40.555Z,-0.98
2019-01-11T20:15:48.750Z,-1.01
2019-01-11T20:24:24.606Z,-1.00
2019-01-11T20:27:35.611Z,-1.12
2019-01-11T20:33:58.031Z,-1.06
2019-01-11T20:40:39.520Z,-1.10
2019-01-11T21:46:05.687Z,-0.89
2019-01-11T21:48:26.668Z,-0.83
2019-01-11T21:50:57.140Z,-0.74
2019-01-11T21:53:30.859Z,-0.74
2019-01-11T22:21:25.405Z,-0.69
2019-01-11T22:24:25.675Z,-0.83
2019-01-11T22:27:33.032Z,-0.88
2019-01-11T22:35:09.552Z,-0.98
2019-01-11T22:49:25.100Z,-0.82
2019-01-11T22:52:05.672Z,-0.89
2019-01-11T23:02:49.541Z,-0.75
2019-01-11T23:04:50.863Z,-0.76
2019-01-11T23:15:00.447Z,-0.71
2019-01-11T23:18:18.787Z,-0.67
2019-01-11T23:21:06.069Z,-0.66
2019-01-11T23:24:07.891Z,-0.59
2019-01-11T23:30:07.764Z,-0.71
2019-01-11T23:32:49.881Z,-0.61
2019-01-11T23:35:42.676Z,-0.60
2019-01-11T23:38:28.300Z,-0.73
2019-01-11T23:41:36.725Z,-0.68
2019-01-11T23:45:16.080Z,-0.71
2019-01-11T23:47:17.278Z,-0.82
2019-01-11T23:50:17.424Z,-0.87
2019-01-11T23:52:58.415Z,-0.87
2019-01-11T23:55:36.454Z,-0.92
2019-01-11T23:58:19.712Z,-0.87
